createdAt,value
2018-10-21T00:02:24.789Z,78.53
2018-10-21T00:04:52.986Z,79.89
2018-10-21T00:07:21.562Z,79.47
2018-10-21T00:09:49.746Z,80.06
2018-10-21T00:12:17.973Z,79.78
2018-10-21T00:14:46.193Z,80.23
2018-10-21T00:17:14.404Z,80.53
2018-10-21T00:19:42.617Z,80.43
2018-10-21T00:22:10.813Z,79.85
2018-10-21T00:24:39.041Z,79.23
2018-10-21T00:27:07.563Z,79.55
2018-10-21T00:29:35.865Z,78.51
2018-10-21T00:32:04.148Z,78.54
2018-10-21T00:34:32.362Z,78.09
2018-10-21T00:37:00.612Z,79.59
2018-10-21T00:39:28.835Z,78.99
2018-10-21T00:41:57.132Z,78.82
2018-10-21T00:44:25.362Z,79.99
2018-10-21T00:46:53.585Z,79.83
2018-10-21T00:49:25.325Z,79.54
2018-10-21T00:51:53.565Z,80.89
2018-10-21T00:54:21.754Z,79.46
2018-10-21T00:56:50.966Z,79.87
2018-10-21T00:59:19.169Z,79.71
2018-10-21T01:01:47.393Z,80.30
2018-10-21T01:04:15.663Z,80.30
2018-10-21T01:06:43.789Z,79.99
2018-10-21T01:09:13.309Z,80.18
2018-10-21T01:11:42.491Z,79.35
2018-10-21T01:14:10.979Z,78.66
2018-10-21T01:16:39.258Z,79.29
2018-10-21T01:19:07.607Z,79.36
2018-10-21T01:21:36.373Z,79.06
2018-10-21T01:24:04.688Z,78.29
2018-10-21T01:26:32.880Z,79.12
2018-10-21T01:29:01.098Z,78.34
2018-10-21T01:31:29.306Z,79.04
2018-10-21T01:33:57.530Z,78.71
2018-10-21T01:36:26.124Z,79.02
2018-10-21T01:38:54.130Z,78.53
2018-10-21T01:41:22.428Z,78.97
2018-10-21T01:43:51.061Z,80.18
2018-10-21T01:46:19.372Z,79.52
2018-10-21T01:48:47.657Z,78.96
2018-10-21T01:51:15.943Z,79.41
2018-10-21T01:53:44.069Z,79.50
2018-10-21T01:56:12.353Z,79.97
2018-10-21T01:58:40.565Z,80.34
2018-10-21T02:01:08.766Z,80.38
2018-10-21T02:03:36.977Z,80.80
2018-10-21T02:06:05.282Z,80.35
2018-10-21T02:08:33.510Z,79.95
2018-10-21T02:11:01.709Z,81.52
2018-10-21T02:13:29.909Z,80.77
2018-10-21T02:15:58.117Z,80.65
2018-10-21T02:18:26.315Z,80.72
2018-10-21T02:20:54.569Z,80.83
2018-10-21T02:23:22.741Z,80.64
2018-10-21T02:25:51.074Z,81.71
2018-10-21T02:28:19.290Z,82.11
2018-10-21T02:30:47.525Z,80.03
2018-10-21T02:33:15.851Z,79.16
2018-10-21T02:35:43.960Z,78.94
2018-10-21T02:38:12.160Z,79.67
2018-10-21T02:41:56.374Z,79.64
2018-10-21T02:44:24.974Z,79.61
2018-10-21T02:46:54.484Z,80.18
2018-10-21T02:49:23.081Z,80.65
2018-10-21T02:51:56.517Z,80.65
2018-10-21T02:54:26.733Z,80.35
2018-10-21T02:56:55.062Z,81.58
2018-10-21T02:59:23.819Z,81.87
2018-10-21T03:01:52.064Z,80.47
2018-10-21T03:04:20.604Z,82.96
2018-10-21T03:06:49.227Z,82.74
2018-10-21T03:09:17.720Z,83.06
2018-10-21T03:11:45.797Z,81.91
2018-10-21T03:14:14.105Z,81.85
2018-10-21T03:16:42.467Z,83.62
2018-10-21T03:19:10.691Z,83.78
2018-10-21T03:21:38.920Z,83.25
2018-10-21T03:24:07.175Z,83.08
2018-10-21T03:26:35.385Z,83.33
2018-10-21T03:29:03.645Z,84.16
2018-10-21T03:31:31.869Z,83.60
2018-10-21T03:34:00.226Z,84.12
2018-10-21T03:36:28.293Z,82.32
2018-10-21T03:38:56.549Z,82.19
2018-10-21T03:41:24.767Z,81.53
2018-10-21T03:43:52.964Z,82.59
2018-10-21T03:46:21.181Z,82.18
2018-10-21T03:48:50.498Z,82.71
2018-10-21T03:51:18.721Z,83.75
2018-10-21T03:53:46.922Z,83.58
2018-10-21T03:56:15.141Z,83.19
2018-10-21T03:58:45.479Z,83.05
2018-10-21T04:01:13.713Z,84.35
2018-10-21T04:03:41.916Z,83.56
2018-10-21T04:06:10.129Z,85.00
2018-10-21T04:08:38.329Z,83.14
2018-10-21T04:11:06.548Z,83.72
2018-10-21T04:13:34.761Z,85.21
2018-10-21T04:16:02.984Z,84.35
2018-10-21T04:18:31.178Z,85.60
2018-10-21T04:20:59.397Z,85.39
2018-10-21T04:23:27.603Z,85.58
2018-10-21T04:25:55.880Z,84.38
2018-10-21T04:28:25.155Z,84.94
2018-10-21T04:30:53.381Z,86.09
2018-10-21T04:33:52.059Z,85.80
2018-10-21T04:36:29.089Z,85.53
2018-10-21T04:40:08.571Z,86.28
2018-10-21T04:42:40.585Z,86.98
2018-10-21T04:45:09.414Z,87.25
2018-10-21T04:47:37.681Z,87.86
2018-10-21T04:50:07.401Z,88.21
2018-10-21T04:52:35.606Z,87.15
2018-10-21T04:55:06.777Z,87.80
2018-10-21T04:57:35.685Z,87.15
2018-10-21T05:00:03.999Z,87.20
2018-10-21T05:02:32.449Z,88.53
2018-10-21T05:05:00.757Z,88.86
2018-10-21T05:07:29.043Z,88.40
2018-10-21T05:09:57.220Z,88.11
2018-10-21T05:12:25.410Z,88.07
2018-10-21T05:14:53.658Z,88.18
2018-10-21T05:17:21.871Z,88.40
2018-10-21T05:19:50.068Z,88.34
2018-10-21T05:22:21.382Z,88.88
2018-10-21T05:24:49.592Z,88.89
2018-10-21T05:27:17.810Z,88.55
2018-10-21T05:29:46.014Z,88.17
2018-10-21T05:32:14.215Z,88.48
2018-10-21T05:34:42.404Z,88.50
2018-10-21T05:37:10.638Z,88.15
2018-10-21T05:39:38.873Z,88.07
2018-10-21T05:42:07.097Z,88.79
2018-10-21T05:44:35.328Z,87.92
2018-10-21T05:47:03.613Z,87.32
2018-10-21T05:49:31.804Z,88.04
2018-10-21T05:52:00.093Z,88.08
2018-10-21T05:54:28.277Z,88.29
2018-10-21T05:56:56.502Z,88.39
2018-10-21T05:59:24.796Z,88.17
2018-10-21T06:01:52.972Z,89.16
2018-10-21T06:04:22.293Z,88.84
2018-10-21T06:06:50.482Z,88.83
2018-10-21T06:09:18.706Z,88.16
2018-10-21T06:11:46.917Z,88.31
2018-10-21T06:14:15.245Z,88.42
2018-10-21T06:16:46.929Z,88.84
2018-10-21T06:19:20.612Z,88.64
2018-10-21T06:21:48.923Z,87.92
2018-10-21T06:24:17.121Z,88.57
2018-10-21T06:26:45.328Z,88.59
2018-10-21T06:29:13.521Z,89.08
2018-10-21T06:31:41.737Z,88.84
2018-10-21T06:34:10.963Z,89.32
2018-10-21T06:36:39.299Z,89.00
2018-10-21T06:39:10.634Z,89.18
2018-10-21T06:41:39.022Z,89.19
2018-10-21T06:44:07.313Z,88.46
2018-10-21T06:46:35.629Z,88.68
2018-10-21T06:49:04.014Z,87.92
2018-10-21T06:51:32.220Z,89.32
2018-10-21T06:54:00.461Z,89.75
2018-10-21T06:56:29.176Z,88.75
2018-10-21T06:59:00.770Z,89.94
2018-10-21T07:01:29.678Z,89.36
2018-10-21T07:03:58.955Z,90.74
2018-10-21T07:06:29.028Z,90.11
2018-10-21T07:09:01.865Z,91.59
2018-10-21T07:11:30.153Z,89.72
2018-10-21T07:13:58.366Z,90.59
2018-10-21T07:16:26.644Z,90.20
2018-10-21T07:18:54.757Z,90.88
2018-10-21T07:21:23.013Z,89.91
2018-10-21T07:23:51.215Z,90.72
2018-10-21T07:26:19.508Z,89.93
2018-10-21T07:28:47.753Z,91.53
2018-10-21T07:31:16.026Z,91.50
2018-10-21T07:33:44.342Z,90.03
2018-10-21T07:36:13.485Z,91.41
2018-10-21T07:38:41.732Z,90.30
2018-10-21T07:41:13.534Z,89.22
2018-10-21T07:43:41.770Z,90.33
2018-10-21T07:46:10.063Z,90.26
2018-10-21T07:48:38.284Z,90.03
2018-10-21T07:51:06.885Z,90.72
2018-10-21T07:53:35.096Z,89.73
2018-10-21T07:56:03.490Z,90.46
2018-10-21T07:58:31.713Z,91.89
2018-10-21T08:01:00.019Z,92.56
2018-10-21T08:03:28.139Z,91.21
2018-10-21T08:06:19.814Z,93.05
2018-10-21T08:08:48.059Z,91.47
2018-10-21T08:11:16.376Z,90.53
2018-10-21T08:13:44.574Z,91.31
2018-10-21T08:16:12.877Z,91.50
2018-10-21T08:18:40.972Z,92.15
2018-10-21T08:21:09.259Z,93.47
2018-10-21T08:23:37.453Z,91.50
2018-10-21T08:26:05.969Z,91.02
2018-10-21T08:28:34.192Z,90.30
2018-10-21T08:31:02.408Z,89.83
2018-10-21T08:33:30.733Z,90.92
2018-10-21T08:35:59.045Z,90.43
2018-10-21T08:38:27.210Z,90.03
2018-10-21T08:40:55.446Z,91.07
2018-10-21T08:43:23.649Z,92.49
2018-10-21T08:45:51.892Z,90.72
2018-10-21T08:48:20.186Z,88.60
2018-10-21T08:50:48.403Z,88.36
2018-10-21T08:53:16.601Z,87.99
2018-10-21T08:55:45.087Z,90.03
2018-10-21T08:58:13.391Z,89.37
2018-10-21T09:00:41.534Z,89.67
2018-10-21T09:03:09.749Z,90.18
2018-10-21T09:05:37.958Z,92.45
2018-10-21T09:08:06.473Z,89.39
2018-10-21T09:10:34.785Z,88.08
2018-10-21T09:13:02.954Z,88.16
2018-10-21T09:15:31.171Z,87.10
2018-10-21T09:17:59.366Z,86.63
2018-10-21T09:20:27.585Z,85.02
2018-10-21T09:22:55.797Z,84.82
2018-10-21T09:25:24.037Z,85.16
2018-10-21T09:27:52.228Z,84.60
2018-10-21T09:30:20.451Z,83.69
2018-10-21T09:32:48.701Z,83.25
2018-10-21T09:35:18.104Z,83.40
2018-10-21T09:37:46.492Z,83.56
2018-10-21T09:40:17.065Z,82.04
2018-10-21T09:42:45.641Z,81.45
2018-10-21T09:45:15.384Z,81.42
2018-10-21T09:47:44.059Z,82.72
2018-10-21T09:50:12.759Z,83.42
2018-10-21T09:52:41.022Z,81.48
2018-10-21T09:55:14.789Z,80.90
2018-10-21T09:57:43.250Z,79.34
2018-10-21T10:00:11.602Z,79.54
2018-10-21T10:02:46.362Z,78.02
2018-10-21T10:05:14.613Z,79.44
2018-10-21T10:07:42.852Z,78.33
2018-10-21T10:10:13.352Z,78.11
2018-10-21T10:12:41.414Z,76.66
2018-10-21T10:15:10.185Z,76.54
2018-10-21T10:17:38.387Z,75.14
2018-10-21T10:20:07.983Z,75.42
2018-10-21T10:22:36.194Z,75.39
2018-10-21T10:25:04.659Z,74.60
2018-10-21T10:27:32.827Z,73.76
2018-10-21T10:30:01.077Z,72.72
2018-10-21T10:32:29.301Z,74.39
2018-10-21T10:34:57.537Z,75.02
2018-10-21T10:37:26.150Z,72.94
2018-10-21T10:39:54.508Z,73.63
2018-10-21T10:42:22.753Z,72.25
2018-10-21T10:44:50.898Z,71.06
2018-10-21T10:47:19.161Z,71.29
2018-10-21T10:49:47.368Z,71.32
2018-10-21T10:52:15.684Z,69.80
2018-10-21T10:54:43.865Z,70.45
2018-10-21T10:57:12.079Z,69.49
2018-10-21T10:59:40.363Z,68.63
2018-10-21T11:02:08.565Z,68.32
2018-10-21T11:04:36.868Z,67.87
2018-10-21T11:07:05.665Z,67.34
2018-10-21T11:09:33.862Z,67.67
2018-10-21T11:12:02.193Z,67.04
2018-10-21T11:14:30.459Z,65.95
2018-10-21T11:16:58.693Z,65.83
2018-10-21T11:19:27.050Z,65.94
2018-10-21T11:21:55.510Z,64.66
2018-10-21T11:24:23.684Z,65.56
2018-10-21T11:26:52.122Z,65.31
2018-10-21T11:29:22.386Z,66.05
2018-10-21T11:31:50.594Z,65.08
2018-10-21T11:34:18.846Z,65.22
2018-10-21T11:36:47.136Z,64.76
2018-10-21T11:39:15.341Z,64.21
2018-10-21T11:41:43.542Z,63.96
2018-10-21T11:44:11.841Z,62.84
2018-10-21T11:46:40.246Z,61.68
2018-10-21T11:49:08.483Z,62.13
2018-10-21T11:51:36.636Z,59.48
2018-10-21T11:54:04.917Z,59.11
2018-10-21T11:56:35.073Z,59.29
2018-10-21T11:59:03.282Z,58.42
2018-10-21T12:01:31.489Z,58.76
2018-10-21T12:03:59.752Z,58.02
2018-10-21T12:06:27.994Z,56.98
2018-10-21T12:08:56.154Z,56.54
2018-10-21T12:11:24.446Z,56.25
2018-10-21T12:13:52.666Z,55.61
2018-10-21T12:16:20.861Z,55.31
2018-10-21T12:18:49.093Z,55.19
2018-10-21T12:21:17.304Z,55.23
2018-10-21T12:23:45.525Z,54.88
2018-10-21T12:26:13.736Z,52.91
2018-10-21T12:28:41.941Z,53.86
2018-10-21T12:31:10.226Z,52.99
2018-10-21T12:33:40.452Z,51.90
2018-10-21T12:36:08.652Z,52.83
2018-10-21T12:38:36.872Z,51.35
2018-10-21T12:41:05.119Z,51.26
2018-10-21T12:43:33.325Z,51.95
2018-10-21T12:46:01.523Z,51.43
2018-10-21T12:48:29.765Z,51.13
2018-10-21T12:50:58.012Z,49.93
2018-10-21T12:53:26.264Z,48.44
2018-10-21T12:55:54.489Z,47.91
2018-10-21T12:58:22.785Z,48.68
2018-10-21T13:00:52.069Z,46.56
2018-10-21T13:03:20.304Z,47.45
2018-10-21T13:05:48.572Z,47.79
2018-10-21T13:08:16.855Z,47.05
2018-10-21T13:10:45.160Z,47.52
2018-10-21T13:13:13.401Z,47.41
2018-10-21T13:15:41.609Z,47.53
2018-10-21T13:18:09.834Z,46.78
2018-10-21T13:20:38.078Z,46.99
2018-10-21T13:23:06.290Z,45.80
2018-10-21T13:25:34.510Z,46.60
2018-10-21T13:28:02.920Z,45.69
2018-10-21T13:30:31.138Z,46.66
2018-10-21T13:32:59.433Z,46.93
2018-10-21T13:35:27.699Z,45.43
2018-10-21T13:37:55.952Z,45.14
2018-10-21T13:40:24.768Z,45.43
2018-10-21T13:42:52.770Z,44.68
2018-10-21T13:45:21.155Z,44.85
2018-10-21T13:47:49.365Z,46.33
2018-10-21T13:50:17.653Z,46.21
2018-10-21T13:52:45.907Z,46.12
2018-10-21T13:55:14.342Z,45.90
2018-10-21T13:57:42.508Z,45.87
2018-10-21T14:00:10.981Z,45.21
2018-10-21T14:02:39.332Z,45.13
2018-10-21T14:05:09.078Z,45.63
2018-10-21T14:07:37.390Z,45.59
2018-10-21T14:10:06.835Z,44.41
2018-10-21T14:12:34.993Z,45.83
2018-10-21T14:15:03.464Z,46.10
2018-10-21T14:17:31.680Z,46.07
2018-10-21T14:20:00.001Z,45.63
2018-10-21T14:22:28.312Z,45.53
2018-10-21T14:24:57.561Z,45.04
2018-10-21T14:27:25.774Z,45.33
2018-10-21T14:29:53.999Z,46.08
2018-10-21T14:35:14.493Z,47.05
2018-10-21T14:37:42.710Z,46.05
2018-10-21T14:40:12.694Z,47.14
2018-10-21T14:42:41.263Z,46.71
2018-10-21T14:45:10.943Z,47.23
2018-10-21T14:47:43.022Z,46.67
2018-10-21T14:50:12.253Z,47.49
2018-10-21T14:52:40.480Z,46.97
2018-10-21T14:55:09.826Z,47.83
2018-10-21T14:57:38.210Z,48.11
2018-10-21T15:00:08.480Z,47.72
2018-10-21T15:02:36.590Z,47.59
2018-10-21T15:05:06.885Z,48.70
2018-10-21T15:07:35.158Z,48.97
2018-10-21T15:10:03.384Z,48.68
2018-10-21T15:12:31.648Z,49.83
2018-10-21T15:14:59.856Z,49.40
2018-10-21T15:17:28.058Z,49.23
2018-10-21T15:19:56.358Z,49.05
2018-10-21T15:22:24.616Z,49.43
2018-10-21T15:24:52.828Z,50.39
2018-10-21T15:27:21.088Z,49.48
2018-10-21T15:29:49.294Z,49.94
2018-10-21T15:32:17.595Z,50.47
2018-10-21T15:34:45.839Z,50.23
2018-10-21T15:37:13.992Z,51.15
2018-10-21T15:39:42.331Z,51.11
2018-10-21T15:42:11.516Z,50.76
2018-10-21T15:44:39.798Z,50.86
2018-10-21T15:47:08.003Z,51.63
2018-10-21T15:49:36.202Z,51.77
2018-10-21T15:52:04.473Z,51.06
2018-10-21T15:54:33.191Z,51.58
2018-10-21T15:57:01.389Z,52.18
2018-10-21T15:59:29.696Z,52.72
2018-10-21T16:01:57.955Z,51.85
2018-10-21T16:04:26.130Z,53.37
2018-10-21T16:06:54.354Z,54.24
2018-10-21T16:09:22.602Z,54.78
2018-10-21T16:11:50.834Z,55.06
2018-10-21T16:14:19.120Z,55.30
2018-10-21T16:16:47.329Z,56.20
2018-10-21T16:19:15.629Z,56.49
2018-10-21T16:21:43.909Z,55.99
2018-10-21T16:24:12.226Z,56.71
2018-10-21T16:26:40.593Z,56.64
2018-10-21T16:29:08.985Z,57.10
2018-10-21T16:31:37.311Z,57.30
2018-10-21T16:34:05.741Z,57.95
2018-10-21T16:36:33.901Z,57.98
2018-10-21T16:39:02.158Z,58.48
2018-10-21T16:41:33.021Z,59.54
2018-10-21T16:44:01.230Z,58.88
2018-10-21T16:46:29.464Z,60.30
2018-10-21T16:48:57.665Z,60.40
2018-10-21T16:51:25.961Z,59.83
2018-10-21T16:53:54.142Z,60.53
2018-10-21T16:56:22.341Z,60.43
2018-10-21T16:58:50.540Z,61.15
2018-10-21T17:01:18.730Z,61.53
2018-10-21T17:03:46.965Z,61.40
2018-10-21T17:06:15.114Z,61.46
2018-10-21T17:08:43.488Z,61.95
2018-10-21T17:11:11.787Z,62.69
2018-10-21T17:13:39.945Z,62.50
2018-10-21T17:16:08.456Z,63.33
2018-10-21T17:18:36.637Z,62.92
2018-10-21T17:21:04.999Z,63.09
2018-10-21T17:23:33.409Z,63.87
2018-10-21T17:26:01.629Z,63.68
2018-10-21T17:28:29.854Z,63.92
2018-10-21T17:30:58.105Z,63.95
2018-10-21T17:33:26.293Z,64.73
2018-10-21T17:35:54.572Z,65.16
2018-10-21T17:38:22.781Z,65.34
2018-10-21T17:40:50.974Z,66.26
2018-10-21T17:43:19.237Z,65.52
2018-10-21T17:45:47.457Z,65.92
2018-10-21T17:48:15.666Z,65.88
2018-10-21T17:50:43.930Z,66.15
2018-10-21T17:53:12.173Z,65.39
2018-10-21T17:55:40.401Z,65.59
2018-10-21T17:58:08.721Z,65.94
2018-10-21T18:00:36.909Z,66.01
2018-10-21T18:03:05.334Z,65.29
2018-10-21T18:05:33.567Z,66.64
2018-10-21T18:08:01.878Z,65.84
2018-10-21T18:10:30.119Z,66.03
2018-10-21T18:12:58.622Z,65.75
2018-10-21T18:15:26.829Z,65.77
2018-10-21T18:17:55.046Z,66.14
2018-10-21T18:20:23.328Z,66.29
2018-10-21T18:22:51.517Z,66.26
2018-10-21T18:25:19.766Z,66.23
2018-10-21T18:27:47.941Z,66.90
2018-10-21T18:30:19.106Z,68.04
2018-10-21T18:32:47.300Z,68.56
2018-10-21T18:35:16.298Z,68.35
2018-10-21T18:37:44.570Z,68.56
2018-10-21T18:40:13.133Z,68.18
2018-10-21T18:42:41.692Z,68.50
2018-10-21T18:45:11.710Z,69.15
2018-10-21T18:47:40.071Z,68.62
2018-10-21T18:50:10.045Z,68.88
2018-10-21T18:52:38.278Z,69.88
2018-10-21T18:55:07.557Z,70.26
2018-10-21T18:57:35.694Z,70.14
2018-10-21T19:00:03.990Z,70.24
2018-10-21T19:02:32.209Z,70.09
2018-10-21T19:05:00.411Z,70.99
2018-10-21T19:07:28.622Z,70.22
2018-10-21T19:09:56.871Z,71.48
2018-10-21T19:12:25.065Z,71.90
2018-10-21T19:14:53.266Z,70.52
2018-10-21T19:17:21.497Z,70.73
2018-10-21T19:19:49.755Z,70.85
2018-10-21T19:22:17.979Z,70.57
2018-10-21T19:24:46.189Z,71.16
2018-10-21T19:27:14.475Z,71.80
2018-10-21T19:29:42.643Z,71.24
2018-10-21T19:32:10.889Z,71.43
2018-10-21T19:34:39.709Z,71.02
2018-10-21T19:37:08.304Z,72.19
2018-10-21T19:39:36.520Z,71.49
2018-10-21T19:42:04.845Z,72.92
2018-10-21T19:44:33.053Z,73.36
2018-10-21T19:47:01.281Z,73.56
2018-10-21T19:49:29.524Z,73.07
2018-10-21T19:51:57.780Z,74.40
2018-10-21T19:54:26.006Z,74.42
2018-10-21T19:56:54.243Z,73.48
2018-10-21T19:59:22.489Z,73.46
2018-10-21T20:01:50.768Z,72.89
2018-10-21T20:04:18.987Z,73.38
2018-10-21T20:06:47.238Z,73.25
2018-10-21T20:09:15.453Z,74.05
2018-10-21T20:11:43.677Z,74.89
2018-10-21T20:14:11.891Z,75.27
2018-10-21T20:16:40.133Z,75.52
2018-10-21T20:19:08.424Z,74.69
2018-10-21T20:21:36.583Z,74.95
2018-10-21T20:24:04.982Z,74.03
2018-10-21T20:26:33.205Z,74.80
2018-10-21T20:29:01.409Z,75.03
2018-10-21T20:31:29.633Z,75.82
2018-10-21T20:33:57.945Z,76.54
2018-10-21T20:36:26.318Z,76.17
2018-10-21T20:38:54.461Z,76.73
2018-10-21T20:41:22.652Z,76.63
2018-10-21T20:43:50.889Z,76.29
2018-10-21T20:46:19.232Z,77.78
2018-10-21T20:48:47.465Z,77.00
2018-10-21T20:51:15.745Z,78.01
2018-10-21T20:53:43.906Z,78.16
2018-10-21T20:56:12.118Z,77.31
2018-10-21T20:58:40.321Z,77.11
2018-10-21T21:01:08.578Z,78.80
2018-10-21T21:03:36.783Z,77.32
2018-10-21T21:06:05.054Z,77.83
2018-10-21T21:08:33.205Z,77.33
2018-10-21T21:11:01.397Z,76.78
2018-10-21T21:13:29.601Z,77.37
2018-10-21T21:15:57.889Z,78.08
2018-10-21T21:18:26.053Z,77.45
2018-10-21T21:20:54.289Z,77.93
2018-10-21T21:23:22.485Z,77.92
2018-10-21T21:25:50.699Z,77.71
2018-10-21T21:28:18.916Z,77.51
2018-10-21T21:30:47.113Z,77.19
2018-10-21T21:33:15.355Z,77.97
2018-10-21T21:35:43.550Z,77.14
2018-10-21T21:38:11.772Z,77.61
2018-10-21T21:40:39.990Z,77.53
2018-10-21T21:43:08.349Z,77.63
2018-10-21T21:45:36.564Z,77.57
2018-10-21T21:48:05.172Z,77.86
2018-10-21T21:50:33.335Z,77.84
2018-10-21T21:53:01.581Z,77.95
2018-10-21T21:55:29.791Z,79.75
2018-10-21T21:57:57.995Z,79.38
2018-10-21T22:00:26.212Z,80.04
2018-10-21T22:02:54.415Z,80.14
2018-10-21T22:05:22.606Z,79.15
2018-10-21T22:07:50.831Z,79.93
2018-10-21T22:10:19.204Z,80.57
2018-10-21T22:12:47.260Z,79.78
2018-10-21T22:15:15.462Z,81.07
2018-10-21T22:17:44.162Z,79.55
2018-10-21T22:20:13.391Z,80.27
2018-10-21T22:22:41.645Z,80.24
2018-10-21T22:25:10.053Z,79.77
2018-10-21T22:27:38.242Z,79.14
2018-10-21T22:30:07.751Z,79.88
2018-10-21T22:32:35.969Z,79.77
2018-10-21T22:35:04.837Z,79.65
2018-10-21T22:37:33.078Z,80.30
2018-10-21T22:40:01.370Z,80.05
2018-10-21T22:42:29.519Z,80.53
2018-10-21T22:44:57.709Z,81.00
2018-10-21T22:47:25.917Z,80.50
2018-10-21T22:49:54.128Z,80.34
2018-10-21T22:52:22.363Z,80.51
2018-10-21T22:54:50.718Z,80.98
2018-10-21T22:57:19.965Z,80.70
2018-10-21T22:59:50.104Z,80.38
2018-10-21T23:02:18.357Z,80.16
2018-10-21T23:04:47.086Z,80.42
2018-10-21T23:07:15.309Z,80.12
2018-10-21T23:09:43.517Z,79.62
2018-10-21T23:12:11.778Z,80.30
2018-10-21T23:14:39.907Z,79.00
2018-10-21T23:17:08.145Z,79.69
2018-10-21T23:19:49.619Z,79.21
2018-10-21T23:22:18.043Z,79.97
2018-10-21T23:24:46.223Z,80.36
2018-10-21T23:27:14.572Z,79.84
2018-10-21T23:29:43.588Z,78.69
2018-10-21T23:32:11.832Z,79.14
2018-10-21T23:34:40.054Z,78.81
2018-10-21T23:37:08.305Z,79.15
2018-10-21T23:39:36.508Z,79.06
2018-10-21T23:42:04.919Z,78.60
2018-10-21T23:44:33.085Z,77.98
2018-10-21T23:47:01.274Z,78.07
2018-10-21T23:49:29.505Z,78.33
2018-10-21T23:51:57.759Z,78.47
2018-10-21T23:54:25.918Z,79.20
2018-10-21T23:56:54.125Z,78.67
2018-10-21T23:59:22.324Z,78.48
